createdAt,value
2018-06-30T00:01:19.237Z,22.30
2018-06-30T00:04:22.206Z,22.20
2018-06-30T00:07:25.174Z,22.40
2018-06-30T00:10:29.668Z,22.30
2018-06-30T00:13:35.059Z,22.20
2018-06-30T00:16:38.385Z,21.80
2018-06-30T00:19:41.370Z,21.90
2018-06-30T00:22:44.452Z,22.10
2018-06-30T00:25:47.401Z,22.20
2018-06-30T00:28:51.397Z,22.20
2018-06-30T00:31:54.474Z,22.20
2018-06-30T00:34:57.484Z,22.30
2018-06-30T00:38:01.375Z,22.00
2018-06-30T00:41:04.637Z,22.00
2018-06-30T00:44:07.743Z,22.00
2018-06-30T00:47:12.928Z,21.90
2018-06-30T00:50:15.964Z,21.60
2018-06-30T00:53:18.908Z,21.50
2018-06-30T00:56:21.860Z,21.60
2018-06-30T00:59:24.863Z,21.80
2018-06-30T01:02:27.782Z,21.80
2018-06-30T01:05:30.777Z,21.70
2018-06-30T01:08:34.079Z,21.80
2018-06-30T01:11:37.218Z,21.60
2018-06-30T01:14:40.309Z,21.60
2018-06-30T01:17:43.375Z,21.60
2018-06-30T01:20:46.358Z,21.60
2018-06-30T01:23:49.301Z,21.40
2018-06-30T01:26:52.249Z,21.60
2018-06-30T01:29:55.211Z,21.50
2018-06-30T01:36:01.065Z,21.40
2018-06-30T01:39:07.247Z,21.30
2018-06-30T01:42:10.513Z,21.30
2018-06-30T01:45:13.781Z,21.10
2018-06-30T01:48:16.848Z,21.30
2018-06-30T01:51:19.741Z,21.20
2018-06-30T01:54:22.672Z,21.00
2018-06-30T01:57:25.599Z,21.00
2018-06-30T02:00:28.554Z,20.90
2018-06-30T02:03:31.472Z,21.10
2018-06-30T02:06:34.838Z,21.10
2018-06-30T02:09:37.906Z,21.10
2018-06-30T02:12:41.022Z,20.90
2018-06-30T02:15:44.266Z,20.70
2018-06-30T02:18:47.183Z,20.90
2018-06-30T02:21:50.143Z,21.10
2018-06-30T02:24:53.098Z,21.00
2018-06-30T02:27:56.060Z,21.10
2018-06-30T02:30:59.009Z,21.10
2018-06-30T02:34:01.989Z,21.10
2018-06-30T02:37:05.523Z,21.00
2018-06-30T02:40:08.862Z,20.90
2018-06-30T02:43:11.957Z,20.90
2018-06-30T02:46:16.248Z,21.00
2018-06-30T02:49:19.163Z,21.00
2018-06-30T02:52:22.140Z,20.90
2018-06-30T02:55:25.261Z,20.70
2018-06-30T03:12:11.477Z,20.70
2018-06-30T03:15:14.754Z,20.90
2018-06-30T03:18:17.698Z,20.70
2018-06-30T03:21:20.677Z,20.60
2018-06-30T03:24:23.616Z,20.40
2018-06-30T03:27:26.589Z,20.50
2018-06-30T03:30:29.524Z,20.40
2018-06-30T03:33:32.630Z,20.30
2018-06-30T03:36:35.755Z,20.30
2018-06-30T03:39:38.874Z,20.30
2018-06-30T03:42:41.907Z,20.30
2018-06-30T03:45:44.930Z,20.30
2018-06-30T03:48:47.905Z,20.30
2018-06-30T03:51:50.860Z,20.40
2018-06-30T03:54:53.804Z,20.30
2018-06-30T03:57:56.780Z,20.30
2018-06-30T04:00:59.856Z,20.30
2018-06-30T04:04:02.991Z,20.30
2018-06-30T04:07:06.161Z,20.30
2018-06-30T04:10:09.274Z,20.20
2018-06-30T04:13:12.431Z,20.30
2018-06-30T04:16:15.576Z,20.30
2018-06-30T04:19:18.531Z,20.30
2018-06-30T04:22:21.477Z,20.20
2018-06-30T04:25:25.191Z,20.20
2018-06-30T04:28:28.177Z,20.00
2018-06-30T04:31:31.188Z,20.20
2018-06-30T04:37:38.116Z,20.30
2018-06-30T04:40:41.165Z,20.20
2018-06-30T04:43:44.251Z,20.10
2018-06-30T04:46:47.225Z,20.20
2018-06-30T04:49:50.161Z,20.30
2018-06-30T04:52:53.140Z,20.40
2018-06-30T04:55:56.144Z,20.50
2018-06-30T04:58:59.170Z,20.50
2018-06-30T05:02:02.251Z,20.50
2018-06-30T05:05:05.594Z,20.60
2018-06-30T05:08:08.676Z,20.60
2018-06-30T05:11:11.736Z,20.40
2018-06-30T05:14:14.821Z,20.60
2018-06-30T05:17:17.786Z,20.60
2018-06-30T05:20:20.749Z,20.70
2018-06-30T05:23:23.670Z,20.70
2018-06-30T05:26:27.406Z,20.80
2018-06-30T05:29:30.364Z,20.70
2018-06-30T05:32:33.554Z,20.80
2018-06-30T05:35:39.327Z,20.90
2018-06-30T05:38:42.425Z,20.90
2018-06-30T05:41:45.706Z,21.00
2018-06-30T05:44:56.501Z,21.00
2018-06-30T05:48:11.664Z,21.00
2018-06-30T05:51:16.116Z,21.10
2018-06-30T05:54:20.171Z,21.10
2018-06-30T05:57:23.406Z,21.10
2018-06-30T06:00:26.466Z,21.20
2018-06-30T06:03:30.114Z,21.20
2018-06-30T06:06:34.392Z,21.20
2018-06-30T06:09:37.488Z,21.20
2018-06-30T06:12:41.707Z,21.20
2018-06-30T06:15:47.017Z,21.20
2018-06-30T06:18:50.239Z,21.40
2018-06-30T06:24:57.177Z,21.40
2018-06-30T06:28:00.654Z,21.40
2018-06-30T06:31:04.543Z,21.40
2018-06-30T06:34:07.677Z,21.40
2018-06-30T06:37:10.881Z,21.50
2018-06-30T06:40:14.347Z,21.50
2018-06-30T06:43:17.529Z,21.50
2018-06-30T06:46:20.478Z,21.60
2018-06-30T06:49:23.415Z,21.60
2018-06-30T06:52:31.193Z,21.60
2018-06-30T06:55:34.337Z,21.80
2018-06-30T06:58:37.540Z,21.70
2018-06-30T07:01:43.242Z,21.80
2018-06-30T07:04:50.323Z,21.90
2018-06-30T07:07:53.760Z,21.90
2018-06-30T07:10:56.746Z,22.00
2018-06-30T07:14:00.314Z,22.10
2018-06-30T07:17:04.081Z,22.20
2018-06-30T07:20:07.385Z,22.30
2018-06-30T07:23:10.469Z,22.30
2018-06-30T07:26:14.412Z,22.40
2018-06-30T07:29:17.541Z,22.40
2018-06-30T07:32:20.488Z,22.60
2018-06-30T07:35:23.457Z,22.70
2018-06-30T07:38:26.476Z,22.80
2018-06-30T07:41:29.435Z,22.90
2018-06-30T07:44:32.594Z,22.90
2018-06-30T07:47:35.682Z,22.90
2018-06-30T07:50:39.496Z,22.90
2018-06-30T07:53:42.441Z,23.10
2018-06-30T07:56:45.375Z,23.10
2018-06-30T07:59:48.326Z,23.20
2018-06-30T08:02:51.414Z,23.20
2018-06-30T08:05:54.357Z,23.30
2018-06-30T08:08:57.325Z,23.30
2018-06-30T08:12:01.192Z,23.40
2018-06-30T08:15:05.873Z,23.40
2018-06-30T08:18:08.977Z,23.50
2018-06-30T08:21:12.180Z,23.60
2018-06-30T08:24:15.278Z,23.70
2018-06-30T08:27:18.236Z,23.70
2018-06-30T08:33:24.965Z,23.90
2018-06-30T08:36:27.982Z,23.90
2018-06-30T08:39:31.053Z,23.90
2018-06-30T08:42:34.705Z,24.00
2018-06-30T08:45:37.809Z,24.10
2018-06-30T08:48:41.887Z,24.20
2018-06-30T08:51:45.101Z,24.20
2018-06-30T08:54:48.076Z,24.30
2018-06-30T08:57:52.466Z,24.30
2018-06-30T09:00:55.993Z,24.40
2018-06-30T09:03:59.071Z,24.40
2018-06-30T09:07:02.105Z,24.50
2018-06-30T09:10:05.789Z,24.50
2018-06-30T09:13:08.901Z,24.60
2018-06-30T09:16:12.052Z,24.90
2018-06-30T09:19:15.756Z,24.80
2018-06-30T09:22:18.897Z,24.80
2018-06-30T09:25:21.986Z,24.80
2018-06-30T09:28:25.220Z,25.20
2018-06-30T09:31:29.105Z,25.10
2018-06-30T09:34:32.536Z,25.10
2018-06-30T09:37:36.037Z,25.20
2018-06-30T09:40:39.728Z,25.20
2018-06-30T09:43:43.943Z,25.30
2018-06-30T09:46:47.123Z,25.30
2018-06-30T09:49:50.161Z,25.40
2018-06-30T09:52:53.306Z,25.40
2018-06-30T09:58:59.267Z,25.60
2018-06-30T10:02:02.283Z,25.60
2018-06-30T10:05:05.298Z,25.60
2018-06-30T10:08:08.256Z,25.60
2018-06-30T10:11:11.306Z,25.70
2018-06-30T10:14:14.551Z,25.70
2018-06-30T10:17:17.593Z,25.80
2018-06-30T10:20:20.549Z,25.90
2018-06-30T10:23:24.168Z,25.90
2018-06-30T10:26:27.726Z,25.80
2018-06-30T10:29:30.653Z,25.90
2018-06-30T10:32:33.657Z,26.00
2018-06-30T10:35:36.842Z,26.00
2018-06-30T10:38:39.792Z,26.20
2018-06-30T10:41:42.763Z,26.30
2018-06-30T10:44:45.709Z,26.30
2018-06-30T10:47:48.693Z,26.40
2018-06-30T10:50:51.682Z,26.50
2018-06-30T10:53:54.659Z,26.50
2018-06-30T10:56:57.636Z,26.60
2018-06-30T11:00:01.124Z,26.50
2018-06-30T11:03:04.392Z,26.60
2018-06-30T11:06:07.437Z,26.70
2018-06-30T11:09:11.504Z,26.70
2018-06-30T11:12:14.503Z,27.00
2018-06-30T11:15:17.541Z,27.10
2018-06-30T11:18:20.540Z,27.10
2018-06-30T11:21:24.206Z,27.20
2018-06-30T11:24:27.817Z,27.30
2018-06-30T11:27:30.852Z,27.40
2018-06-30T11:30:34.410Z,27.40
2018-06-30T11:33:37.472Z,27.40
2018-06-30T11:36:40.504Z,27.50
2018-06-30T11:39:44.153Z,27.50
2018-06-30T11:42:47.824Z,27.60
2018-06-30T11:45:50.912Z,27.50
2018-06-30T11:51:57.602Z,27.60
2018-06-30T11:55:01.565Z,27.70
2018-06-30T11:58:05.738Z,27.70
2018-06-30T12:01:09.909Z,27.80
2018-06-30T12:04:13.802Z,27.80
2018-06-30T12:07:17.685Z,27.70
2018-06-30T12:10:21.460Z,27.80
2018-06-30T12:16:42.265Z,27.70
2018-06-30T12:19:45.248Z,27.80
2018-06-30T12:22:48.251Z,27.90
2018-06-30T12:25:51.291Z,27.90
2018-06-30T12:28:54.234Z,27.90
2018-06-30T12:31:57.558Z,28.00
2018-06-30T12:35:00.489Z,28.10
2018-06-30T12:38:03.833Z,28.20
2018-06-30T12:41:06.859Z,28.20
2018-06-30T12:44:09.838Z,28.30
2018-06-30T12:47:12.985Z,28.40
2018-06-30T12:50:16.877Z,28.30
2018-06-30T12:53:19.876Z,28.30
2018-06-30T12:56:23.044Z,28.40
2018-06-30T12:59:26.253Z,28.40
2018-06-30T13:02:29.315Z,28.40
2018-06-30T13:05:32.500Z,28.40
2018-06-30T13:08:35.600Z,28.50
2018-06-30T13:11:38.675Z,28.50
2018-06-30T13:14:42.418Z,28.50
2018-06-30T13:17:45.479Z,28.50
2018-06-30T13:20:48.350Z,28.40
2018-06-30T13:23:51.307Z,28.60
2018-06-30T13:26:54.305Z,28.50
2018-06-30T13:29:58.437Z,28.60
2018-06-30T13:33:02.143Z,28.60
2018-06-30T13:36:06.014Z,28.80
2018-06-30T13:39:13.469Z,28.70
2018-06-30T13:42:17.352Z,28.80
2018-06-30T13:45:23.304Z,28.80
2018-06-30T13:48:26.433Z,28.80
2018-06-30T13:51:29.590Z,28.80
2018-06-30T13:54:33.747Z,28.80
2018-06-30T13:57:37.462Z,28.80
2018-06-30T14:00:40.785Z,28.80
2018-06-30T14:03:44.023Z,28.80
2018-06-30T14:06:47.255Z,28.80
2018-06-30T14:09:50.586Z,28.80
2018-06-30T14:12:54.223Z,28.90
2018-06-30T14:15:57.586Z,28.90
2018-06-30T14:19:00.651Z,28.90
2018-06-30T14:22:03.709Z,28.90
2018-06-30T14:25:07.619Z,28.90
2018-06-30T14:28:11.101Z,28.90
2018-06-30T14:31:14.597Z,28.90
2018-06-30T14:34:18.006Z,28.90
2018-06-30T14:37:21.262Z,28.80
2018-06-30T14:40:24.249Z,28.90
2018-06-30T14:43:27.372Z,28.90
2018-06-30T14:46:31.507Z,29.10
2018-06-30T14:49:35.202Z,29.00
2018-06-30T14:55:42.593Z,28.90
2018-06-30T14:58:45.993Z,28.90
2018-06-30T15:01:49.588Z,28.80
2018-06-30T15:04:52.621Z,29.10
2018-06-30T15:07:56.314Z,29.60
2018-06-30T15:10:59.460Z,29.50
2018-06-30T15:14:05.288Z,29.70
2018-06-30T15:17:08.897Z,29.60
2018-06-30T15:20:12.083Z,29.90
2018-06-30T15:23:15.320Z,29.80
2018-06-30T15:26:18.475Z,29.80
2018-06-30T15:29:21.916Z,29.70
2018-06-30T15:32:25.169Z,29.80
2018-06-30T15:35:28.361Z,29.80
2018-06-30T15:38:31.529Z,29.50
2018-06-30T15:41:35.003Z,29.60
2018-06-30T15:44:38.623Z,29.50
2018-06-30T15:47:41.688Z,29.80
2018-06-30T15:50:44.833Z,29.80
2018-06-30T15:53:48.420Z,29.60
2018-06-30T15:56:51.757Z,29.40
2018-06-30T15:59:54.969Z,29.50
2018-06-30T16:02:58.432Z,29.30
2018-06-30T16:06:01.797Z,29.30
2018-06-30T16:09:09.618Z,29.00
2018-06-30T16:12:13.040Z,28.80
2018-06-30T16:15:16.325Z,28.70
2018-06-30T16:18:19.477Z,28.80
2018-06-30T16:21:25.135Z,28.90
2018-06-30T16:24:28.737Z,29.00
2018-06-30T16:27:32.147Z,29.20
2018-06-30T16:30:35.521Z,28.90
2018-06-30T16:33:38.846Z,28.60
2018-06-30T16:36:42.400Z,28.30
2018-06-30T16:39:45.559Z,28.10
2018-06-30T16:42:49.185Z,27.90
2018-06-30T16:45:52.748Z,27.70
2018-06-30T16:48:56.030Z,27.60
2018-06-30T16:51:58.986Z,27.50
2018-06-30T16:55:02.089Z,27.40
2018-06-30T16:58:05.539Z,26.90
2018-06-30T17:01:08.957Z,27.20
2018-06-30T17:04:12.400Z,27.10
2018-06-30T17:07:15.714Z,27.00
2018-06-30T17:10:18.721Z,27.00
2018-06-30T17:13:21.937Z,26.80
2018-06-30T17:16:25.740Z,26.80
2018-06-30T17:19:29.148Z,26.80
2018-06-30T17:22:32.403Z,26.80
2018-06-30T17:25:35.509Z,26.80
2018-06-30T17:28:38.564Z,26.80
2018-06-30T17:31:41.930Z,26.80
2018-06-30T17:34:45.622Z,26.70
2018-06-30T17:37:49.446Z,26.80
2018-06-30T17:40:52.771Z,27.00
2018-06-30T17:43:56.197Z,27.10
2018-06-30T17:46:59.625Z,27.10
2018-06-30T17:50:04.195Z,26.90
2018-06-30T17:53:07.251Z,26.80
2018-06-30T17:56:10.588Z,26.70
2018-06-30T17:59:14.050Z,26.70
2018-06-30T18:02:17.381Z,26.60
2018-06-30T18:05:20.437Z,26.60
2018-06-30T18:08:23.483Z,26.50
2018-06-30T18:11:26.777Z,26.50
2018-06-30T18:14:30.236Z,26.40
2018-06-30T18:17:33.691Z,26.30
2018-06-30T18:20:37.666Z,26.40
2018-06-30T18:23:40.734Z,26.40
2018-06-30T18:26:43.739Z,26.30
2018-06-30T18:29:47.201Z,26.30
2018-06-30T18:32:50.809Z,26.30
2018-06-30T18:35:54.626Z,26.30
2018-06-30T18:38:58.248Z,26.30
2018-06-30T18:42:03.650Z,26.20
2018-06-30T18:45:08.024Z,26.20
2018-06-30T18:48:12.195Z,26.20
2018-06-30T18:51:15.665Z,26.20
2018-06-30T18:54:18.908Z,26.20
2018-06-30T18:57:21.892Z,26.20
2018-06-30T19:00:26.334Z,26.10
2018-06-30T19:03:29.470Z,26.20
2018-06-30T19:06:33.141Z,26.10
2018-06-30T19:09:36.797Z,26.00
2018-06-30T19:12:40.270Z,25.90
2018-06-30T19:15:43.477Z,25.90
2018-06-30T19:18:46.875Z,26.00
2018-06-30T19:21:50.385Z,25.90
2018-06-30T19:24:53.731Z,25.90
2018-06-30T19:27:57.045Z,25.80
2018-06-30T19:31:00.608Z,25.60
2018-06-30T19:34:04.353Z,25.60
2018-06-30T19:37:08.347Z,25.40
2018-06-30T19:40:12.941Z,25.40
2018-06-30T19:43:16.481Z,25.40
2018-06-30T19:46:19.776Z,25.20
2018-06-30T19:49:22.753Z,25.10
2018-06-30T19:52:26.243Z,25.00
2018-06-30T19:55:29.947Z,24.90
2018-06-30T19:58:33.813Z,24.80
2018-06-30T20:01:36.954Z,24.60
2018-06-30T20:04:40.382Z,24.40
2018-06-30T20:07:49.487Z,24.40
2018-06-30T20:10:52.437Z,24.30
2018-06-30T20:13:55.606Z,24.30
2018-06-30T20:16:58.668Z,24.20
2018-06-30T20:20:01.847Z,24.10
2018-06-30T20:23:05.288Z,24.10
2018-06-30T20:26:09.120Z,24.10
2018-06-30T20:29:13.825Z,24.00
2018-06-30T20:32:17.434Z,24.00
2018-06-30T20:35:20.977Z,23.80
2018-06-30T20:38:26.873Z,23.80
2018-06-30T20:41:30.573Z,23.80
2018-06-30T20:44:34.068Z,23.70
2018-06-30T20:47:37.465Z,23.60
2018-06-30T20:50:42.042Z,23.60
2018-06-30T20:53:46.469Z,23.60
2018-06-30T20:56:50.533Z,23.40
2018-06-30T20:59:59.848Z,23.40
2018-06-30T21:03:03.669Z,23.40
2018-06-30T21:06:07.850Z,23.40
2018-06-30T21:09:12.674Z,23.40
2018-06-30T21:12:16.768Z,23.30
2018-06-30T21:15:20.791Z,23.20
2018-06-30T21:18:25.911Z,23.10
2018-06-30T21:21:37.491Z,22.80
2018-06-30T21:24:41.280Z,22.60
2018-06-30T21:27:45.082Z,22.70
2018-06-30T21:33:52.163Z,22.50
2018-06-30T21:37:59.363Z,22.50
2018-06-30T21:41:02.676Z,22.30
2018-06-30T21:44:06.685Z,22.40
2018-06-30T21:47:11.599Z,22.40
2018-06-30T21:50:15.423Z,22.50
2018-06-30T21:53:19.937Z,22.30
2018-06-30T21:56:25.012Z,22.50
2018-06-30T21:59:35.226Z,22.30
2018-06-30T22:02:38.785Z,22.50
2018-06-30T22:05:43.965Z,22.40
2018-06-30T22:08:48.054Z,22.50
2018-06-30T22:11:54.282Z,22.50
2018-06-30T22:15:01.349Z,22.40
2018-06-30T22:18:07.378Z,22.50
2018-06-30T22:21:13.304Z,22.50
2018-06-30T22:24:17.854Z,22.20
2018-06-30T22:27:23.356Z,22.10
2018-06-30T22:30:32.490Z,22.00
2018-06-30T22:33:39.458Z,22.00
2018-06-30T22:36:44.773Z,22.00
2018-06-30T22:40:05.116Z,21.60
2018-06-30T22:43:08.469Z,21.70
2018-06-30T22:46:11.517Z,21.60
2018-06-30T22:49:15.194Z,21.80
2018-06-30T22:52:18.822Z,21.40
2018-06-30T22:55:22.933Z,21.40
2018-06-30T22:58:25.916Z,21.40
2018-06-30T23:01:28.848Z,21.40
2018-06-30T23:04:31.789Z,21.60
2018-06-30T23:07:35.783Z,21.70
2018-06-30T23:10:38.757Z,21.60
2018-06-30T23:13:41.971Z,21.70
2018-06-30T23:16:45.500Z,21.70
2018-06-30T23:19:48.460Z,21.60
2018-06-30T23:22:56.785Z,21.70
2018-06-30T23:25:59.702Z,21.60
2018-06-30T23:29:02.682Z,21.40
2018-06-30T23:32:06.476Z,21.20
2018-06-30T23:35:09.402Z,21.40
2018-06-30T23:38:12.402Z,21.30
2018-06-30T23:41:15.543Z,21.30
2018-06-30T23:44:18.473Z,21.30
2018-06-30T23:47:21.397Z,21.20
2018-06-30T23:50:24.607Z,21.20
2018-06-30T23:53:27.747Z,21.20
2018-06-30T23:56:30.715Z,21.20
2018-06-30T23:59:33.920Z,21.20
